createdAt,value
2023-03-29T00:00:13.451Z,4.91
2023-03-29T00:01:34.779Z,4.90
2023-03-29T00:02:14.446Z,4.91
2023-03-29T00:03:13.550Z,4.59
2023-03-29T00:04:13.594Z,4.89
2023-03-29T00:05:13.408Z,4.83
2023-03-29T00:06:13.416Z,5.19
2023-03-29T00:07:13.405Z,5.03
2023-03-29T00:08:13.386Z,4.89
2023-03-29T00:09:13.394Z,4.83
2023-03-29T00:10:13.407Z,4.81
2023-03-29T00:11:13.390Z,4.72
2023-03-29T00:12:13.370Z,4.69
2023-03-29T00:13:13.385Z,4.22
2023-03-29T00:14:13.362Z,4.45
2023-03-29T00:15:13.354Z,4.67
2023-03-29T00:16:13.340Z,4.97
2023-03-29T00:17:13.472Z,4.89
2023-03-29T00:18:13.348Z,4.32
2023-03-29T00:19:13.342Z,4.74
2023-03-29T00:20:13.338Z,4.45
2023-03-29T00:21:13.328Z,4.47
2023-03-29T00:22:13.316Z,4.39
2023-03-29T00:23:13.368Z,4.88
2023-03-29T00:24:13.479Z,4.85
2023-03-29T00:25:13.487Z,4.44
2023-03-29T00:26:13.500Z,4.36
2023-03-29T00:27:13.508Z,4.70
2023-03-29T00:28:13.523Z,4.43
2023-03-29T00:29:13.506Z,4.39
2023-03-29T00:30:13.631Z,4.61
2023-03-29T00:31:13.760Z,4.65
2023-03-29T00:32:13.715Z,4.37
2023-03-29T00:33:13.669Z,4.36
2023-03-29T00:34:13.684Z,4.34
2023-03-29T00:35:13.704Z,4.25
2023-03-29T00:36:13.707Z,4.09
2023-03-29T00:37:13.713Z,4.03
2023-03-29T00:38:13.742Z,3.78
2023-03-29T00:39:13.723Z,4.19
2023-03-29T00:40:13.846Z,4.13
2023-03-29T00:41:13.857Z,4.04
2023-03-29T00:42:13.867Z,4.22
2023-03-29T00:43:13.860Z,4.20
2023-03-29T00:44:13.877Z,4.11
2023-03-29T00:45:13.893Z,4.46
2023-03-29T00:46:13.944Z,4.17
2023-03-29T00:47:13.931Z,3.74
2023-03-29T00:48:13.973Z,4.05
2023-03-29T00:49:13.970Z,3.79
2023-03-29T00:50:13.945Z,3.74
2023-03-29T00:51:13.977Z,4.02
2023-03-29T00:52:14.014Z,4.12
2023-03-29T00:53:14.013Z,4.01
2023-03-29T00:54:14.024Z,3.93
2023-03-29T00:55:14.020Z,3.92
2023-03-29T00:56:14.098Z,3.82
2023-03-29T00:57:14.116Z,4.04
2023-03-29T00:58:14.090Z,4.18
2023-03-29T00:59:14.101Z,4.16
2023-03-29T01:00:14.200Z,4.47
2023-03-29T01:01:14.297Z,4.17
2023-03-29T01:02:14.402Z,4.16
2023-03-29T01:03:14.467Z,3.93
2023-03-29T01:04:14.275Z,4.25
2023-03-29T01:05:14.317Z,4.18
2023-03-29T01:06:14.337Z,4.15
2023-03-29T01:07:14.425Z,4.10
2023-03-29T01:08:14.366Z,3.92
2023-03-29T01:09:14.371Z,4.05
2023-03-29T01:10:14.471Z,4.04
2023-03-29T01:11:14.466Z,4.21
2023-03-29T01:12:14.484Z,4.09
2023-03-29T01:13:14.472Z,4.14
2023-03-29T01:14:14.495Z,4.13
2023-03-29T01:15:14.511Z,4.33
2023-03-29T01:16:14.620Z,4.27
2023-03-29T01:17:14.624Z,4.23
2023-03-29T01:18:14.635Z,4.34
2023-03-29T01:19:14.628Z,3.87
2023-03-29T01:20:14.655Z,4.25
2023-03-29T01:21:14.680Z,4.41
2023-03-29T01:22:14.673Z,4.49
2023-03-29T01:23:14.694Z,4.23
2023-03-29T01:24:14.701Z,4.46
2023-03-29T01:25:14.707Z,4.12
2023-03-29T01:26:14.734Z,4.13
2023-03-29T01:27:14.792Z,4.17
2023-03-29T01:28:14.789Z,3.78
2023-03-29T01:29:14.795Z,4.09
2023-03-29T01:30:14.891Z,4.22
2023-03-29T01:31:14.848Z,4.15
2023-03-29T01:32:14.854Z,4.20
2023-03-29T01:33:14.866Z,4.11
2023-03-29T01:34:14.863Z,4.25
2023-03-29T01:35:14.901Z,4.06
2023-03-29T01:36:14.934Z,3.79
2023-03-29T01:37:14.924Z,3.88
2023-03-29T01:38:14.958Z,4.11
2023-03-29T01:39:14.967Z,3.55
2023-03-29T01:40:14.975Z,3.72
2023-03-29T01:41:14.985Z,3.89
2023-03-29T01:42:14.990Z,3.87
2023-03-29T01:43:15.046Z,3.78
2023-03-29T01:44:14.996Z,3.78
2023-03-29T01:45:15.003Z,3.68
2023-03-29T01:46:15.126Z,3.60
2023-03-29T01:47:15.137Z,3.68
2023-03-29T01:48:15.170Z,3.54
2023-03-29T01:49:15.156Z,3.58
2023-03-29T01:50:15.135Z,3.42
2023-03-29T01:51:15.149Z,3.61
2023-03-29T01:52:15.273Z,3.44
2023-03-29T01:53:15.275Z,3.44
2023-03-29T01:54:15.282Z,3.51
2023-03-29T01:55:15.273Z,3.63
2023-03-29T01:56:15.307Z,3.66
2023-03-29T01:57:15.407Z,3.60
2023-03-29T01:58:15.334Z,3.48
2023-03-29T01:59:15.335Z,3.07
2023-03-29T02:00:15.378Z,3.17
2023-03-29T02:01:15.433Z,3.37
2023-03-29T02:02:15.470Z,3.55
2023-03-29T02:03:15.516Z,3.39
2023-03-29T02:04:15.408Z,3.55
2023-03-29T02:05:15.413Z,3.61
2023-03-29T02:06:15.441Z,3.45
2023-03-29T02:07:15.439Z,3.51
2023-03-29T02:08:15.489Z,3.73
2023-03-29T02:09:15.486Z,3.65
2023-03-29T02:10:15.462Z,3.46
2023-03-29T02:11:15.577Z,3.61
2023-03-29T02:12:15.690Z,3.22
2023-03-29T02:13:15.675Z,3.20
2023-03-29T02:14:15.729Z,3.48
2023-03-29T02:15:15.698Z,3.18
2023-03-29T02:16:15.769Z,3.45
2023-03-29T02:17:15.743Z,3.55
2023-03-29T02:18:15.776Z,3.27
2023-03-29T02:19:15.768Z,3.31
2023-03-29T02:20:15.797Z,3.21
2023-03-29T02:21:15.807Z,3.46
2023-03-29T02:22:15.808Z,3.21
2023-03-29T02:23:15.857Z,3.22
2023-03-29T02:24:15.862Z,3.26
2023-03-29T02:25:15.852Z,3.02
2023-03-29T02:26:15.882Z,3.07
2023-03-29T02:27:15.912Z,3.38
2023-03-29T02:28:16.002Z,3.08
2023-03-29T02:29:16.014Z,3.33
2023-03-29T02:30:16.052Z,3.24
2023-03-29T02:31:16.081Z,3.16
2023-03-29T02:32:16.080Z,3.27
2023-03-29T02:33:16.072Z,3.43
2023-03-29T02:34:16.148Z,3.39
2023-03-29T02:35:16.168Z,3.34
2023-03-29T02:36:16.200Z,2.77
2023-03-29T02:37:16.193Z,3.02
2023-03-29T02:38:16.207Z,3.21
2023-03-29T02:39:16.269Z,3.19
2023-03-29T02:40:16.349Z,3.03
2023-03-29T02:41:16.304Z,3.47
2023-03-29T02:42:16.310Z,3.16
2023-03-29T02:43:16.321Z,2.90
2023-03-29T02:44:16.342Z,2.93
2023-03-29T02:45:16.374Z,2.98
2023-03-29T02:46:16.403Z,3.09
2023-03-29T02:47:16.397Z,3.12
2023-03-29T02:48:16.414Z,3.30
2023-03-29T02:49:16.451Z,3.59
2023-03-29T02:50:16.489Z,3.48
2023-03-29T02:51:18.616Z,3.19
2023-03-29T02:52:16.472Z,3.16
2023-03-29T02:53:16.462Z,3.04
2023-03-29T02:54:16.459Z,3.16
2023-03-29T02:55:16.439Z,3.35
2023-03-29T02:56:16.445Z,3.33
2023-03-29T02:57:16.521Z,3.50
2023-03-29T02:58:16.443Z,3.30
2023-03-29T02:59:16.437Z,3.40
2023-03-29T03:00:16.411Z,3.58
2023-03-29T03:01:16.405Z,3.49
2023-03-29T03:02:16.479Z,3.24
2023-03-29T03:03:16.530Z,3.41
2023-03-29T03:04:16.436Z,3.50
2023-03-29T03:05:16.389Z,3.45
2023-03-29T03:06:16.386Z,3.15
2023-03-29T03:07:16.375Z,3.39
2023-03-29T03:08:16.400Z,3.52
2023-03-29T03:09:16.362Z,3.58
2023-03-29T03:10:16.357Z,3.40
2023-03-29T03:11:16.339Z,3.46
2023-03-29T03:12:16.354Z,3.36
2023-03-29T03:13:16.333Z,3.49
2023-03-29T03:14:16.362Z,3.49
2023-03-29T03:15:16.327Z,3.36
2023-03-29T03:16:16.318Z,3.58
2023-03-29T03:17:16.305Z,3.74
2023-03-29T03:18:16.327Z,3.73
2023-03-29T03:19:16.333Z,3.80
2023-03-29T03:20:16.272Z,3.89
2023-03-29T03:21:16.281Z,3.60
2023-03-29T03:22:16.273Z,3.56
2023-03-29T03:23:16.283Z,3.76
2023-03-29T03:24:16.253Z,3.68
2023-03-29T03:25:16.242Z,3.67
2023-03-29T03:26:16.265Z,3.53
2023-03-29T03:27:16.243Z,3.56
2023-03-29T03:28:16.228Z,3.67
2023-03-29T03:29:16.213Z,3.55
2023-03-29T03:30:16.210Z,3.62
2023-03-29T03:31:16.233Z,3.60
2023-03-29T03:32:16.196Z,3.84
2023-03-29T03:33:16.239Z,3.72
2023-03-29T03:34:16.194Z,3.93
2023-03-29T03:35:16.190Z,3.69
2023-03-29T03:36:16.197Z,3.42
2023-03-29T03:37:16.208Z,3.62
2023-03-29T03:38:16.166Z,3.35
2023-03-29T03:39:16.181Z,3.44
2023-03-29T03:40:16.136Z,3.36
2023-03-29T03:41:16.128Z,3.55
2023-03-29T03:42:16.131Z,3.47
2023-03-29T03:43:16.143Z,3.50
2023-03-29T03:44:16.135Z,3.56
2023-03-29T03:45:16.122Z,3.36
2023-03-29T03:46:16.162Z,3.56
2023-03-29T03:47:16.102Z,3.70
2023-03-29T03:48:16.075Z,3.34
2023-03-29T03:49:16.096Z,3.34
2023-03-29T03:50:16.109Z,3.37
2023-03-29T03:51:16.067Z,3.46
2023-03-29T03:52:16.058Z,3.62
2023-03-29T03:53:16.064Z,3.41
2023-03-29T03:54:16.042Z,3.49
2023-03-29T03:55:16.053Z,3.39
2023-03-29T03:56:16.038Z,3.43
2023-03-29T03:57:16.096Z,3.38
2023-03-29T03:58:16.016Z,3.60
2023-03-29T03:59:16.025Z,3.59
2023-03-29T04:00:16.024Z,3.66
2023-03-29T04:01:16.001Z,3.47
2023-03-29T04:02:16.013Z,3.44
2023-03-29T04:03:16.082Z,3.53
2023-03-29T04:04:16.008Z,3.70
2023-03-29T04:05:15.986Z,3.53
2023-03-29T04:06:15.976Z,3.19
2023-03-29T04:07:15.974Z,3.21
2023-03-29T04:08:15.965Z,3.52
2023-03-29T04:09:15.948Z,3.65
2023-03-29T04:10:15.990Z,3.66
2023-03-29T04:11:15.956Z,3.50
2023-03-29T04:12:15.924Z,3.51
2023-03-29T04:13:15.918Z,3.60
2023-03-29T04:14:15.927Z,3.36
2023-03-29T04:15:15.916Z,3.20
2023-03-29T04:16:15.947Z,3.35
2023-03-29T04:17:15.895Z,3.54
2023-03-29T04:18:16.141Z,3.44
2023-03-29T04:19:15.891Z,3.53
2023-03-29T04:20:15.876Z,3.33
2023-03-29T04:21:15.880Z,3.38
2023-03-29T04:22:15.875Z,3.36
2023-03-29T04:23:15.863Z,3.35
2023-03-29T04:24:15.855Z,3.22
2023-03-29T04:25:15.850Z,3.37
2023-03-29T04:26:15.881Z,3.21
2023-03-29T04:27:15.835Z,3.33
2023-03-29T04:28:15.921Z,3.43
2023-03-29T04:29:15.934Z,3.16
2023-03-29T04:30:15.960Z,3.22
2023-03-29T04:31:15.937Z,3.47
2023-03-29T04:32:15.942Z,3.32
2023-03-29T04:33:15.959Z,3.45
2023-03-29T04:34:15.996Z,3.31
2023-03-29T04:35:16.006Z,3.46
2023-03-29T04:36:16.134Z,3.39
2023-03-29T04:37:16.020Z,3.49
2023-03-29T04:38:16.031Z,3.44
2023-03-29T04:39:16.043Z,3.58
2023-03-29T04:40:16.047Z,3.42
2023-03-29T04:41:16.064Z,3.43
2023-03-29T04:42:16.074Z,3.34
2023-03-29T04:43:16.105Z,3.37
2023-03-29T04:44:16.187Z,3.19
2023-03-29T04:45:16.198Z,3.29
2023-03-29T04:46:16.220Z,3.22
2023-03-29T04:47:16.215Z,3.23
2023-03-29T04:48:16.237Z,3.14
2023-03-29T04:49:16.329Z,3.23
2023-03-29T04:50:16.349Z,3.23
2023-03-29T04:51:16.354Z,3.10
2023-03-29T04:52:16.361Z,3.16
2023-03-29T04:53:16.414Z,3.18
2023-03-29T04:54:16.397Z,3.24
2023-03-29T04:55:16.489Z,3.14
2023-03-29T04:56:16.498Z,3.31
2023-03-29T04:57:16.539Z,3.34
2023-03-29T04:58:16.522Z,3.32
2023-03-29T04:59:16.543Z,3.21
2023-03-29T05:00:16.544Z,3.30
2023-03-29T05:01:16.739Z,3.09
2023-03-29T05:02:16.667Z,3.19
2023-03-29T05:03:50.644Z,0.50
2023-03-29T05:04:50.532Z,0.50
2023-03-29T05:05:50.501Z,0.50
2023-03-29T05:06:50.485Z,0.50
2023-03-29T05:07:50.483Z,0.50
2023-03-29T05:08:50.511Z,0.50
2023-03-29T05:09:50.468Z,0.51
2023-03-29T05:10:50.446Z,0.49
2023-03-29T05:11:50.457Z,0.51
2023-03-29T05:12:50.439Z,0.51
2023-03-29T05:13:50.467Z,0.52
2023-03-29T05:14:50.468Z,0.51
2023-03-29T05:15:50.447Z,0.50
2023-03-29T05:16:50.422Z,0.53
2023-03-29T05:17:50.451Z,0.51
2023-03-29T05:18:50.427Z,0.54
2023-03-29T05:19:50.445Z,0.51
2023-03-29T05:20:50.452Z,0.51
2023-03-29T05:21:50.489Z,0.54
2023-03-29T05:22:50.374Z,0.53
2023-03-29T05:23:50.388Z,0.53
2023-03-29T05:24:50.438Z,0.54
2023-03-29T05:25:50.392Z,0.52
2023-03-29T05:26:50.350Z,0.52
2023-03-29T05:27:50.362Z,0.52
2023-03-29T05:28:50.379Z,0.51
2023-03-29T05:29:50.361Z,0.47
2023-03-29T05:30:50.350Z,0.52
2023-03-29T05:31:50.408Z,0.50
2023-03-29T05:32:50.363Z,0.60
2023-03-29T05:33:50.327Z,0.59
2023-03-29T05:34:50.322Z,0.60
2023-03-29T05:35:50.323Z,0.57
2023-03-29T05:36:50.318Z,0.67
2023-03-29T05:37:50.341Z,0.70
2023-03-29T05:38:50.332Z,0.75
2023-03-29T05:39:50.255Z,0.83
2023-03-29T05:40:50.253Z,0.81
2023-03-29T05:41:50.257Z,0.83
2023-03-29T05:42:50.281Z,0.89
2023-03-29T05:43:50.245Z,0.98
2023-03-29T05:44:51.567Z,1.01
2023-03-29T05:45:50.437Z,1.08
2023-03-29T05:46:50.452Z,1.08
2023-03-29T05:47:50.516Z,1.09
2023-03-29T05:48:50.537Z,1.17
2023-03-29T05:49:50.594Z,1.23
2023-03-29T05:50:50.685Z,1.19
2023-03-29T05:51:50.696Z,1.09
2023-03-29T05:52:50.771Z,0.81
2023-03-29T05:53:50.813Z,0.64
2023-03-29T05:54:50.879Z,0.56
2023-03-29T05:55:51.024Z,0.51
2023-03-29T05:56:50.994Z,0.47
2023-03-29T05:57:51.008Z,0.50
2023-03-29T05:58:52.946Z,0.50
2023-03-29T05:59:51.056Z,0.50
2023-03-29T06:00:51.051Z,0.61
2023-03-29T06:01:51.022Z,0.82
2023-03-29T06:02:51.144Z,0.87
2023-03-29T06:03:51.185Z,1.02
2023-03-29T06:04:51.067Z,1.24
2023-03-29T06:05:51.014Z,1.36
2023-03-29T06:06:51.001Z,1.52
2023-03-29T06:07:51.048Z,1.64
2023-03-29T06:08:51.005Z,1.61
2023-03-29T06:09:50.974Z,1.62
2023-03-29T06:10:50.966Z,1.67
2023-03-29T06:11:50.974Z,1.54
2023-03-29T06:12:51.001Z,1.53
2023-03-29T06:13:50.942Z,1.63
2023-03-29T06:14:50.944Z,1.72
2023-03-29T06:15:50.954Z,1.58
2023-03-29T06:16:50.967Z,1.64
2023-03-29T06:17:50.988Z,1.58
2023-03-29T06:18:50.905Z,1.61
2023-03-29T06:19:50.886Z,1.68
2023-03-29T06:20:50.907Z,1.71
2023-03-29T06:21:50.892Z,1.83
2023-03-29T06:22:50.867Z,1.94
2023-03-29T06:23:50.861Z,1.87
2023-03-29T06:24:50.860Z,1.96
2023-03-29T06:25:51.024Z,1.91
2023-03-29T06:26:50.857Z,2.02
2023-03-29T06:27:50.855Z,2.11
2023-03-29T06:28:52.273Z,2.11
2023-03-29T06:29:50.844Z,1.96
2023-03-29T06:30:50.861Z,1.72
2023-03-29T06:31:50.876Z,1.60
2023-03-29T06:32:50.852Z,1.80
2023-03-29T06:33:50.813Z,1.64
2023-03-29T06:34:50.865Z,1.83
2023-03-29T06:35:50.851Z,1.92
2023-03-29T06:36:50.818Z,1.90
2023-03-29T06:37:50.764Z,2.25
2023-03-29T06:38:50.771Z,2.88
2023-03-29T06:39:52.832Z,2.84
2023-03-29T06:40:50.892Z,2.64
2023-03-29T06:41:50.948Z,2.62
2023-03-29T06:42:50.953Z,2.70
2023-03-29T06:43:50.984Z,2.73
2023-03-29T06:44:50.994Z,2.87
2023-03-29T06:45:51.023Z,3.05
2023-03-29T06:46:52.135Z,3.17
2023-03-29T06:47:51.574Z,3.10
2023-03-29T06:48:51.091Z,3.04
2023-03-29T06:49:51.108Z,3.10
2023-03-29T06:50:51.137Z,3.14
2023-03-29T06:51:51.175Z,3.07
2023-03-29T06:52:51.563Z,2.84
2023-03-29T06:53:51.205Z,3.02
2023-03-29T06:54:51.581Z,3.12
2023-03-29T06:55:51.204Z,3.43
2023-03-29T06:56:51.273Z,3.58
2023-03-29T06:57:51.558Z,3.91
2023-03-29T06:58:51.252Z,3.93
2023-03-29T06:59:51.297Z,3.77
2023-03-29T07:00:51.280Z,3.70
2023-03-29T07:01:51.342Z,3.69
2023-03-29T07:02:51.569Z,3.73
2023-03-29T07:03:51.364Z,3.70
2023-03-29T07:04:51.431Z,3.58
2023-03-29T07:05:51.366Z,3.53
2023-03-29T07:06:51.415Z,3.40
2023-03-29T07:07:51.588Z,3.44
2023-03-29T07:08:51.480Z,3.33
2023-03-29T07:09:51.458Z,3.31
2023-03-29T07:10:51.481Z,2.98
2023-03-29T07:11:51.528Z,2.78
2023-03-29T07:12:51.525Z,2.80
2023-03-29T07:13:51.534Z,2.72
2023-03-29T07:14:51.609Z,2.55
2023-03-29T07:15:51.627Z,2.57
2023-03-29T07:16:51.642Z,2.71
2023-03-29T07:17:51.649Z,2.66
2023-03-29T07:18:51.627Z,2.68
2023-03-29T07:19:51.659Z,2.60
2023-03-29T07:20:51.674Z,2.61
2023-03-29T07:21:52.070Z,2.57
2023-03-29T07:22:51.712Z,2.52
2023-03-29T07:23:51.708Z,2.47
2023-03-29T07:24:51.702Z,2.10
2023-03-29T07:25:51.729Z,2.04
2023-03-29T07:27:03.222Z,2.17
2023-03-29T07:27:53.065Z,2.17
2023-03-29T07:28:51.737Z,2.18
2023-03-29T07:29:51.741Z,2.18
2023-03-29T07:30:51.724Z,2.20
2023-03-29T07:31:51.708Z,2.33
2023-03-29T07:32:52.085Z,2.42
2023-03-29T07:33:51.743Z,2.41
2023-03-29T07:34:51.695Z,2.52
2023-03-29T07:35:51.727Z,2.44
2023-03-29T07:36:51.706Z,2.52
2023-03-29T07:37:52.072Z,2.51
2023-03-29T07:38:52.932Z,2.59
2023-03-29T07:39:51.696Z,2.66
2023-03-29T07:40:51.651Z,2.66
2023-03-29T07:41:51.668Z,2.65
2023-03-29T07:42:51.671Z,2.72
2023-03-29T07:43:51.660Z,2.68
2023-03-29T07:44:52.085Z,2.69
2023-03-29T07:45:51.686Z,2.58
2023-03-29T07:46:51.621Z,2.44
2023-03-29T07:47:51.689Z,2.42
2023-03-29T07:48:51.621Z,2.23
2023-03-29T07:49:52.072Z,2.16
2023-03-29T07:50:51.601Z,2.30
2023-03-29T07:51:51.586Z,2.36
2023-03-29T07:52:52.095Z,2.39
2023-03-29T07:53:51.568Z,2.86
2023-03-29T07:54:52.061Z,3.45
2023-03-29T07:55:51.550Z,3.53
2023-03-29T07:56:51.574Z,3.51
2023-03-29T07:57:51.574Z,3.34
2023-03-29T07:58:51.546Z,2.98
2023-03-29T07:59:51.559Z,2.85
2023-03-29T08:00:51.560Z,2.77
2023-03-29T08:01:51.526Z,2.76
2023-03-29T08:02:51.539Z,2.72
2023-03-29T08:03:51.574Z,2.47
2023-03-29T08:04:51.502Z,2.34
2023-03-29T08:05:51.489Z,2.20
2023-03-29T08:06:51.509Z,1.93
2023-03-29T08:07:51.461Z,1.75
2023-03-29T08:08:51.516Z,1.60
2023-03-29T08:09:51.457Z,1.68
2023-03-29T08:10:51.462Z,1.68
2023-03-29T08:11:51.455Z,1.82
2023-03-29T08:12:51.428Z,1.65
2023-03-29T08:13:51.427Z,1.56
2023-03-29T08:14:51.574Z,1.73
2023-03-29T08:15:51.417Z,1.82
2023-03-29T08:16:51.433Z,1.84
2023-03-29T08:17:51.445Z,1.79
2023-03-29T08:18:51.395Z,1.75
2023-03-29T08:19:51.818Z,1.57
2023-03-29T08:20:51.375Z,1.48
2023-03-29T08:21:51.345Z,1.24
2023-03-29T08:22:51.354Z,1.22
2023-03-29T08:23:51.364Z,1.46
2023-03-29T08:24:51.599Z,1.49
2023-03-29T08:25:51.337Z,1.59
2023-03-29T08:26:51.396Z,1.59
2023-03-29T08:27:51.607Z,1.66
2023-03-29T08:28:51.344Z,1.71
2023-03-29T08:29:51.311Z,1.76
2023-03-29T08:30:51.294Z,1.77
2023-03-29T08:31:51.295Z,1.71
2023-03-29T08:32:54.450Z,1.75
2023-03-29T08:33:51.283Z,1.54
2023-03-29T08:34:51.257Z,1.68
2023-03-29T08:35:51.334Z,1.75
2023-03-29T08:36:52.100Z,1.76
2023-03-29T08:37:51.644Z,1.64
2023-03-29T08:38:51.231Z,1.65
2023-03-29T08:39:51.226Z,1.69
2023-03-29T08:40:51.212Z,1.70
2023-03-29T08:41:51.236Z,1.67
2023-03-29T08:42:52.107Z,1.70
2023-03-29T08:43:51.216Z,1.71
2023-03-29T08:44:51.192Z,1.72
2023-03-29T08:45:51.349Z,1.77
2023-03-29T08:46:51.244Z,1.74
2023-03-29T08:47:51.238Z,1.76
2023-03-29T08:48:51.137Z,1.76
2023-03-29T08:49:51.145Z,1.80
2023-03-29T08:50:51.135Z,1.80
2023-03-29T08:51:51.154Z,1.82
2023-03-29T08:52:51.171Z,1.76
2023-03-29T08:53:51.112Z,1.77
2023-03-29T08:54:51.098Z,1.78
2023-03-29T08:55:51.102Z,1.83
2023-03-29T08:56:51.223Z,1.80
2023-03-29T08:57:51.100Z,1.83
2023-03-29T08:58:51.613Z,1.78
2023-03-29T08:59:51.069Z,1.80
2023-03-29T09:00:51.076Z,1.80
2023-03-29T09:01:51.061Z,1.80
2023-03-29T09:02:51.143Z,1.77
2023-03-29T09:03:51.175Z,1.78
2023-03-29T09:04:51.067Z,1.76
2023-03-29T09:05:51.023Z,1.78
2023-03-29T09:06:51.022Z,1.79
2023-03-29T09:07:51.029Z,1.77
2023-03-29T09:08:51.108Z,1.73
2023-03-29T09:09:51.001Z,1.77
2023-03-29T09:10:51.000Z,1.73
2023-03-29T09:11:50.984Z,1.68
2023-03-29T09:12:51.041Z,1.67
2023-03-29T09:13:51.002Z,1.70
2023-03-29T09:14:50.951Z,1.72
2023-03-29T09:15:51.004Z,1.70
2023-03-29T09:16:50.976Z,1.70
2023-03-29T09:17:51.165Z,1.73
2023-03-29T09:18:50.965Z,1.70
2023-03-29T09:19:50.927Z,1.73
2023-03-29T09:20:50.949Z,1.68
2023-03-29T09:21:50.920Z,1.74
2023-03-29T09:22:51.620Z,1.70
2023-03-29T09:23:51.022Z,1.72
2023-03-29T09:24:50.968Z,1.71
2023-03-29T09:25:53.446Z,1.72
2023-03-29T09:26:50.872Z,1.47
2023-03-29T09:27:51.182Z,1.34
2023-03-29T09:28:50.920Z,1.09
2023-03-29T09:29:50.914Z,1.07
2023-03-29T09:30:50.879Z,1.12
2023-03-29T09:31:50.931Z,1.02
2023-03-29T09:32:51.132Z,0.98
2023-03-29T09:33:51.135Z,0.84
2023-03-29T09:34:50.867Z,0.80
2023-03-29T09:35:50.869Z,0.92
2023-03-29T09:36:50.871Z,0.91
2023-03-29T09:37:50.803Z,1.05
2023-03-29T09:38:50.791Z,1.22
2023-03-29T09:39:50.800Z,1.19
2023-03-29T09:40:50.767Z,1.15
2023-03-29T09:41:50.768Z,1.19
2023-03-29T09:42:50.785Z,1.24
2023-03-29T09:43:50.764Z,1.26
2023-03-29T09:44:50.742Z,1.30
2023-03-29T09:45:50.800Z,1.33
2023-03-29T09:46:50.747Z,1.38
2023-03-29T09:47:50.788Z,1.38
2023-03-29T09:48:51.152Z,1.39
2023-03-29T09:49:50.717Z,1.38
2023-03-29T09:50:50.762Z,1.39
2023-03-29T09:51:50.715Z,1.40
2023-03-29T09:52:50.727Z,1.39
2023-03-29T09:53:51.115Z,1.44
2023-03-29T09:54:50.713Z,1.36
2023-03-29T09:55:50.748Z,1.39
2023-03-29T09:56:50.792Z,1.39
2023-03-29T09:57:50.701Z,1.37
2023-03-29T09:58:50.680Z,1.36
2023-03-29T09:59:50.668Z,1.38
2023-03-29T10:00:50.752Z,1.33
2023-03-29T10:01:50.679Z,1.33
2023-03-29T10:02:50.737Z,1.36
2023-03-29T10:03:51.174Z,1.39
2023-03-29T10:04:51.113Z,1.35
2023-03-29T10:05:50.633Z,1.31
2023-03-29T10:06:50.674Z,1.27
2023-03-29T10:07:50.623Z,1.26
2023-03-29T10:08:50.606Z,1.25
2023-03-29T10:09:50.630Z,1.27
2023-03-29T10:10:50.613Z,1.28
2023-03-29T10:11:50.628Z,1.19
2023-03-29T10:12:50.563Z,1.12
2023-03-29T10:13:50.626Z,0.97
2023-03-29T10:14:53.500Z,0.86
2023-03-29T10:15:50.540Z,0.90
2023-03-29T10:16:50.616Z,0.97
2023-03-29T10:17:50.558Z,0.87
2023-03-29T10:18:50.512Z,0.90
2023-03-29T10:19:50.651Z,0.66
2023-03-29T10:20:50.549Z,0.65
2023-03-29T10:21:50.477Z,0.57
2023-03-29T10:22:50.576Z,0.76
2023-03-29T10:23:50.544Z,0.95
2023-03-29T10:24:50.640Z,1.04
2023-03-29T10:25:50.456Z,1.11
2023-03-29T10:26:50.472Z,1.15
2023-03-29T10:27:50.458Z,1.17
2023-03-29T10:28:50.436Z,1.20
2023-03-29T10:29:50.452Z,1.29
2023-03-29T10:30:50.425Z,1.35
2023-03-29T10:31:50.510Z,1.40
2023-03-29T10:32:50.490Z,1.43
2023-03-29T10:33:50.404Z,1.41
2023-03-29T10:34:50.394Z,1.45
2023-03-29T10:35:50.448Z,1.46
2023-03-29T10:36:50.415Z,1.50
2023-03-29T10:37:50.388Z,1.39
2023-03-29T10:38:50.357Z,1.42
2023-03-29T10:39:50.377Z,1.36
2023-03-29T10:40:50.352Z,1.25
2023-03-29T10:41:50.385Z,1.32
2023-03-29T10:42:50.345Z,1.31
2023-03-29T10:43:50.345Z,1.36
2023-03-29T10:44:50.372Z,1.34
2023-03-29T10:45:50.376Z,1.33
2023-03-29T10:46:50.326Z,1.40
2023-03-29T10:47:50.369Z,1.29
2023-03-29T10:48:50.322Z,1.15
2023-03-29T10:49:51.067Z,1.00
2023-03-29T10:50:50.293Z,0.91
2023-03-29T10:51:50.312Z,0.94
2023-03-29T10:52:50.327Z,0.82
2023-03-29T10:53:50.273Z,0.87
2023-03-29T10:54:50.293Z,0.81
2023-03-29T10:55:50.259Z,0.69
2023-03-29T10:56:52.343Z,0.69
2023-03-29T10:57:50.296Z,0.81
2023-03-29T10:58:50.238Z,0.84
2023-03-29T10:59:50.691Z,0.94
2023-03-29T11:00:50.226Z,0.84
2023-03-29T11:01:50.275Z,0.79
2023-03-29T11:02:50.347Z,0.90
2023-03-29T11:03:50.273Z,0.91
2023-03-29T11:04:50.680Z,0.89
2023-03-29T11:05:50.211Z,0.93
2023-03-29T11:06:50.167Z,0.98
2023-03-29T11:07:50.234Z,0.98
2023-03-29T11:08:50.150Z,1.09
2023-03-29T11:09:50.159Z,1.11
2023-03-29T11:10:50.176Z,1.11
2023-03-29T11:11:51.583Z,1.16
2023-03-29T11:12:51.198Z,1.16
2023-03-29T11:13:50.185Z,1.14
2023-03-29T11:14:50.712Z,1.08
2023-03-29T11:15:50.740Z,1.00
2023-03-29T11:16:50.178Z,1.03
2023-03-29T11:17:50.194Z,1.06
2023-03-29T11:18:50.181Z,1.03
2023-03-29T11:19:50.144Z,0.96
2023-03-29T11:20:50.152Z,1.01
2023-03-29T11:21:50.193Z,0.98
2023-03-29T11:22:50.221Z,0.90
2023-03-29T11:23:50.278Z,0.91
2023-03-29T11:24:50.375Z,0.94
2023-03-29T11:25:50.498Z,0.92
2023-03-29T11:26:50.447Z,0.89
2023-03-29T11:27:50.502Z,0.87
2023-03-29T11:28:50.566Z,0.85
2023-03-29T11:29:50.641Z,0.83
2023-03-29T11:30:50.754Z,0.85
2023-03-29T11:31:50.811Z,0.84
2023-03-29T11:32:50.864Z,0.86
2023-03-29T11:33:50.836Z,0.80
2023-03-29T11:34:50.892Z,0.78
2023-03-29T11:35:51.027Z,0.85
2023-03-29T11:36:51.048Z,0.79
2023-03-29T11:37:51.215Z,0.77
2023-03-29T11:38:51.124Z,0.76
2023-03-29T11:39:51.191Z,0.76
2023-03-29T11:40:51.247Z,0.75
2023-03-29T11:41:51.315Z,0.74
2023-03-29T11:42:51.377Z,0.74
2023-03-29T11:43:51.454Z,0.73
2023-03-29T11:44:53.414Z,0.72
2023-03-29T11:45:51.500Z,0.71
2023-03-29T11:46:51.521Z,0.71
2023-03-29T11:47:51.491Z,0.75
2023-03-29T11:48:51.466Z,0.75
2023-03-29T11:49:51.471Z,0.72
2023-03-29T11:50:51.455Z,0.72
2023-03-29T11:51:51.442Z,0.71
2023-03-29T11:52:51.436Z,0.71
2023-03-29T11:53:51.416Z,0.68
2023-03-29T11:54:51.421Z,0.70
2023-03-29T11:55:51.684Z,0.70
2023-03-29T11:56:51.488Z,0.69
2023-03-29T11:57:51.676Z,0.70
2023-03-29T11:58:51.397Z,0.68
2023-03-29T11:59:51.393Z,0.66
2023-03-29T12:00:51.361Z,0.66
2023-03-29T12:01:51.386Z,0.67
2023-03-29T12:02:51.695Z,0.63
2023-03-29T12:03:51.444Z,0.64
2023-03-29T12:04:51.366Z,0.67
2023-03-29T12:05:51.354Z,0.64
2023-03-29T12:06:51.355Z,0.64
2023-03-29T12:07:51.325Z,0.64
2023-03-29T12:08:51.316Z,0.62
2023-03-29T12:09:51.316Z,0.61
2023-03-29T12:10:51.322Z,0.62
2023-03-29T12:11:51.309Z,0.61
2023-03-29T12:12:51.662Z,0.62
2023-03-29T12:13:51.273Z,0.59
2023-03-29T12:14:51.257Z,0.61
2023-03-29T12:15:51.271Z,0.59
2023-03-29T12:16:51.296Z,0.60
2023-03-29T12:17:51.302Z,0.60
2023-03-29T12:18:51.224Z,0.60
2023-03-29T12:19:51.239Z,0.60
2023-03-29T12:20:51.244Z,0.61
2023-03-29T12:21:51.273Z,0.58
2023-03-29T12:22:51.332Z,0.60
2023-03-29T12:23:51.361Z,0.59
2023-03-29T12:24:51.414Z,0.58
2023-03-29T12:25:51.485Z,0.57
2023-03-29T12:26:51.541Z,0.57
2023-03-29T12:27:51.603Z,0.55
2023-03-29T12:28:51.671Z,0.59
2023-03-29T12:29:51.697Z,0.60
2023-03-29T12:30:51.751Z,0.60
2023-03-29T12:31:51.850Z,0.58
2023-03-29T12:32:51.948Z,0.57
2023-03-29T12:33:51.942Z,0.60
2023-03-29T12:34:51.989Z,0.56
2023-03-29T12:35:52.105Z,0.59
2023-03-29T12:36:52.131Z,0.56
2023-03-29T12:37:52.146Z,0.56
2023-03-29T12:38:52.188Z,0.55
2023-03-29T12:39:52.243Z,0.60
2023-03-29T12:40:52.306Z,0.57
2023-03-29T12:41:52.366Z,0.57
2023-03-29T12:42:52.412Z,0.57
2023-03-29T12:43:52.496Z,0.58
2023-03-29T12:44:52.565Z,0.56
2023-03-29T12:45:52.925Z,0.59
2023-03-29T12:46:52.688Z,0.57
2023-03-29T12:47:52.753Z,0.55
2023-03-29T12:48:52.746Z,0.54
2023-03-29T12:49:52.792Z,0.57
2023-03-29T12:50:52.868Z,0.55
2023-03-29T12:51:52.922Z,0.55
2023-03-29T12:52:52.993Z,0.58
2023-03-29T12:53:53.025Z,0.56
2023-03-29T12:54:53.090Z,0.56
2023-03-29T12:55:53.149Z,0.56
2023-03-29T12:56:53.260Z,0.56
2023-03-29T12:57:53.214Z,0.55
2023-03-29T12:58:53.306Z,0.55
2023-03-29T12:59:53.330Z,0.54
2023-03-29T13:00:53.417Z,0.55
2023-03-29T13:01:53.513Z,0.56
2023-03-29T13:02:53.527Z,0.53
2023-03-29T13:03:53.488Z,0.55
2023-03-29T13:04:53.556Z,0.53
2023-03-29T13:05:53.588Z,0.54
2023-03-29T13:06:54.232Z,0.55
2023-03-29T13:07:53.627Z,0.54
2023-03-29T13:08:53.699Z,0.54
2023-03-29T13:09:53.680Z,0.50
2023-03-29T13:10:53.711Z,0.52
2023-03-29T13:11:53.749Z,0.53
2023-03-29T13:12:53.768Z,0.52
2023-03-29T13:13:53.807Z,0.51
2023-03-29T13:14:53.874Z,0.51
2023-03-29T13:16:53.869Z,0.55
2023-03-29T13:17:53.894Z,0.55
2023-03-29T13:18:53.910Z,0.55
2023-03-29T13:19:53.909Z,0.54